Time;durP1;ratioP1;P1;durP2;ratioP2;P2;SDS_P1;SDS_P2;PMS_P1;PMS_P2;Temp;Humidity;BMP_temperature;BMP_pressure;BME280_temperature;BME280_humidity;BME280_pressure;Samples;Min_cycle;Max_cycle;Signal;HPM_P1;HPM_P2
2023/10/11 00:00:40;;;;;;;5.05;2.08;;;16.60;99.90;16.60;100573.00;;;;5000137;27;93818;-67
2023/10/11 00:05:41;;;;;;;4.38;2.42;;;16.50;99.90;16.40;100572.00;;;;5006171;27;93158;-67
2023/10/11 00:08:09;;;;;;;2.08;1.92;;;16.40;99.90;16.40;100570.00;;;;5004839;27;114143;-67
2023/10/11 00:10:44;;;;;;;9.48;2.92;;;16.30;99.90;16.30;100576.00;;;;5001679;27;93760;-67
2023/10/11 00:13:17;;;;;;;3.72;2.38;;;16.30;99.90;16.20;100575.00;;;;5005170;27;93239;-68
2023/10/11 00:15:50;;;;;;;2.67;1.67;;;16.20;99.90;16.20;100571.00;;;;5007699;27;94213;-67
2023/10/11 00:18:21;;;;;;;2.35;2.10;;;16.20;99.90;16.10;100569.00;;;;4991209;27;92462;-67
2023/10/11 00:20:52;;;;;;;2.30;2.00;;;16.10;99.90;16.00;100563.00;;;;5005545;27;94345;-67
2023/10/11 00:23:22;;;;;;;3.50;1.63;;;16.00;99.90;15.90;100569.00;;;;5001807;27;93068;-67
2023/10/11 00:26:00;;;;;;;1.50;1.40;;;15.90;99.90;15.80;100564.00;;;;4999897;27;94434;-67
2023/10/11 00:28:26;;;;;;;4.95;2.67;;;15.80;99.90;15.70;100564.00;;;;4992637;27;92914;-67
2023/10/11 00:30:59;;;;;;;2.42;2.15;;;15.70;99.90;15.60;100555.00;;;;5006288;27;93276;-67
2023/10/11 00:33:25;;;;;;;6.35;2.10;;;15.60;99.90;15.40;100561.00;;;;4997955;27;92781;-67
2023/10/11 00:35:52;;;;;;;1.88;1.60;;;15.50;99.90;15.30;100564.00;;;;5002836;27;93153;-67
2023/10/11 00:38:26;;;;;;;2.38;1.83;;;15.40;99.90;15.20;100561.00;;;;4986342;27;93702;-66
2023/10/11 00:41:01;;;;;;;3.45;2.58;;;15.30;99.90;15.10;100559.00;;;;5003382;27;93635;-67
2023/10/11 00:43:39;;;;;;;4.97;2.25;;;15.10;99.90;15.00;100553.00;;;;5001635;27;92015;-67
2023/10/11 00:46:10;;;;;;;4.95;2.30;;;15.00;99.90;14.90;100544.00;;;;5001971;27;92856;-67
2023/10/11 00:48:53;;;;;;;4.93;2.45;;;14.90;99.90;14.80;100543.00;;;;5003722;27;93963;-68
2023/10/11 00:51:20;;;;;;;2.95;1.90;;;14.80;99.90;14.70;100552.00;;;;5001155;27;93990;-67
2023/10/11 00:53:47;;;;;;;3.10;2.20;;;14.80;99.90;14.70;100547.00;;;;5002384;27;92718;-67
2023/10/11 00:56:14;;;;;;;5.25;2.25;;;14.70;99.90;14.60;100549.00;;;;5005886;27;92826;-66
2023/10/11 00:58:41;;;;;;;4.25;2.75;;;14.60;99.90;14.50;100542.00;;;;4989943;27;95846;-66
2023/10/11 01:01:08;;;;;;;2.67;1.83;;;14.50;99.90;14.40;100542.00;;;;5004279;27;108721;-66
2023/10/11 01:03:35;;;;;;;3.05;2.50;;;14.40;99.90;14.40;100533.00;;;;5003259;27;94653;-66
2023/10/11 01:06:02;;;;;;;5.30;3.00;;;14.40;99.90;14.30;100545.00;;;;4991435;27;93109;-66
2023/10/11 01:08:38;;;;;;;2.38;2.13;;;14.30;99.90;14.30;100542.00;;;;5003700;27;93042;-67
2023/10/11 01:11:11;;;;;;;2.15;1.95;;;14.30;99.90;14.20;100542.00;;;;5003855;27;93170;-67
2023/10/11 01:13:51;;;;;;;2.35;2.15;;;14.20;99.90;14.20;100544.00;;;;5005234;27;92853;-67
2023/10/11 01:16:20;;;;;;;2.25;1.83;;;14.20;99.90;14.10;100548.00;;;;5009162;27;94498;-67
2023/10/11 01:18:46;;;;;;;5.18;2.63;;;14.10;99.90;14.10;100553.00;;;;5004722;27;94251;-67
2023/10/11 01:21:14;;;;;;;3.75;2.30;;;14.10;99.90;14.10;100541.00;;;;5005014;27;121927;-67
2023/10/11 01:23:43;;;;;;;6.38;2.33;;;14.10;99.90;14.00;100541.00;;;;5008827;27;93181;-67
2023/10/11 01:26:09;;;;;;;5.20;2.78;;;14.00;99.90;14.00;100542.00;;;;5003391;27;94376;-68
2023/10/11 01:28:35;;;;;;;3.83;2.58;;;14.00;99.90;14.00;100529.00;;;;5007564;27;93566;-67
2023/10/11 01:31:08;;;;;;;2.80;2.42;;;14.20;99.90;13.90;100530.00;;;;5003916;27;93340;-67
2023/10/11 01:33:42;;;;;;;3.05;2.17;;;14.00;99.90;13.90;100530.00;;;;5006520;27;95983;-67
2023/10/11 01:36:21;;;;;;;3.00;1.98;;;13.90;99.90;13.90;100528.00;;;;5006870;27;92887;-67
2023/10/11 01:38:47;;;;;;;3.10;2.30;;;13.90;99.90;13.90;100540.00;;;;5003110;27;93014;-67
2023/10/11 01:41:21;;;;;;;2.83;2.13;;;13.90;99.90;13.80;100526.00;;;;5002839;27;94103;-68
2023/10/11 01:43:49;;;;;;;2.53;1.98;;;13.80;99.90;13.80;100520.00;;;;5005327;27;92853;-67
2023/10/11 01:46:17;;;;;;;2.38;2.17;;;13.80;99.90;13.70;100529.00;;;;5007254;27;92910;-67
2023/10/11 01:48:46;;;;;;;3.35;2.28;;;13.70;99.90;13.70;100492.00;;;;5005628;27;94523;-68
2023/10/11 01:51:16;;;;;;;6.27;2.47;;;13.70;99.90;13.70;100511.00;;;;5003295;27;121806;-67
2023/10/11 01:53:43;;;;;;;4.23;2.27;;;13.70;99.90;13.70;100513.00;;;;5005411;27;93451;-67
2023/10/11 01:56:08;;;;;;;2.40;2.10;;;13.70;99.90;13.70;100508.00;;;;5006795;27;94324;-68
2023/10/11 01:58:37;;;;;;;6.03;2.92;;;13.70;99.90;13.70;100505.00;;;;5002363;27;122159;-66
2023/10/11 02:01:05;;;;;;;5.10;3.17;;;13.70;99.90;13.70;100513.00;;;;5004328;27;93034;-67
2023/10/11 02:03:31;;;;;;;3.30;2.40;;;13.70;99.90;13.70;100519.00;;;;5011268;27;92889;-66
2023/10/11 02:05:57;;;;;;;5.70;3.33;;;13.60;99.90;13.60;100509.00;;;;4985059;27;98925;-67
2023/10/11 02:08:25;;;;;;;6.07;2.25;;;13.60;99.90;13.60;100507.00;;;;5003387;27;93115;-67
2023/10/11 02:10:51;;;;;;;2.28;2.08;;;13.60;99.90;13.60;100508.00;;;;5004383;27;93079;-66
2023/10/11 02:13:20;;;;;;;2.97;2.10;;;13.60;99.90;13.60;100511.00;;;;5007254;27;93320;-67
2023/10/11 02:15:48;;;;;;;2.10;1.90;;;13.60;99.90;13.50;100517.00;;;;5011791;27;93266;-67
2023/10/11 02:18:14;;;;;;;3.58;2.10;;;13.50;99.90;13.50;100503.00;;;;5013892;27;94370;-68
2023/10/11 02:20:45;;;;;;;3.95;3.03;;;13.50;99.90;13.50;100510.00;;;;4988099;27;121434;-67
2023/10/11 02:23:14;;;;;;;3.85;2.40;;;13.50;99.90;13.40;100511.00;;;;5007024;27;92339;-67
2023/10/11 02:25:43;;;;;;;4.65;1.85;;;13.50;99.90;13.40;100516.00;;;;5006211;27;93184;-67
2023/10/11 02:28:09;;;;;;;2.97;2.00;;;13.40;99.90;13.40;100513.00;;;;5004901;27;94923;-67
2023/10/11 02:30:38;;;;;;;89.27;46.53;;;13.40;99.90;13.30;100502.00;;;;5002545;27;122429;-66
2023/10/11 02:33:07;;;;;;;62.42;33.45;;;13.30;99.90;13.30;100501.00;;;;5005966;27;93203;-66
2023/10/11 02:35:49;;;;;;;28.47;13.13;;;13.30;99.90;13.20;100500.00;;;;5003308;27;92946;-66
2023/10/11 02:38:21;;;;;;;4.60;3.63;;;13.30;99.90;13.10;100501.00;;;;5005670;27;93051;-66
2023/10/11 02:40:55;;;;;;;9.83;6.33;;;13.10;99.90;13.00;100494.00;;;;5001947;27;94454;-68
2023/10/11 02:43:26;;;;;;;7.40;4.50;;;13.30;99.90;12.90;100485.00;;;;5001547;27;93100;-68
2023/10/11 02:45:53;;;;;;;5.10;3.63;;;13.00;99.90;12.90;100483.00;;;;4990349;27;94103;-67
2023/10/11 02:48:19;;;;;;;6.50;4.03;;;12.90;99.90;12.90;100476.00;;;;5002655;27;93080;-68
2023/10/11 02:50:47;;;;;;;5.43;4.47;;;12.90;99.90;12.80;100474.00;;;;5004994;27;93360;-67
2023/10/11 02:53:22;;;;;;;7.20;4.90;;;12.80;99.90;12.80;100476.00;;;;5003128;27;93463;-67
2023/10/11 02:55:57;;;;;;;10.63;6.93;;;12.80;99.90;12.80;100476.00;;;;5003460;27;94174;-67
2023/10/11 02:58:31;;;;;;;9.07;5.33;;;12.80;99.90;12.80;100470.00;;;;4999722;27;94364;-68
2023/10/11 03:01:14;;;;;;;8.47;3.67;;;12.80;99.90;12.90;100465.00;;;;5005379;27;93023;-67
2023/10/11 03:03:43;;;;;;;3.90;2.83;;;12.80;99.90;13.00;100463.00;;;;4985741;27;93295;-67
2023/10/11 03:06:10;;;;;;;4.87;2.50;;;12.90;99.90;13.00;100459.00;;;;5005287;27;92733;-67
2023/10/11 03:08:37;;;;;;;2.77;2.50;;;13.00;99.90;13.10;100456.00;;;;5007231;27;94318;-67
2023/10/11 03:11:08;;;;;;;4.93;2.33;;;13.10;99.90;13.30;100469.00;;;;5003722;27;93419;-66
2023/10/11 03:13:41;;;;;;;4.03;2.07;;;13.20;99.90;13.40;100468.00;;;;5006539;27;92205;-66
2023/10/11 03:16:13;;;;;;;3.90;2.87;;;13.30;99.90;13.60;100454.00;;;;5005307;27;93032;-66
2023/10/11 03:18:41;;;;;;;4.80;2.35;;;13.50;99.90;13.70;100459.00;;;;5001898;27;93570;-66
2023/10/11 03:21:18;;;;;;;4.10;2.15;;;13.70;99.90;13.90;100454.00;;;;5002583;27;94791;-66
2023/10/11 03:23:55;;;;;;;4.95;2.20;;;13.80;99.90;14.00;100456.00;;;;5007757;27;92939;-66
2023/10/11 03:26:31;;;;;;;4.28;2.38;;;13.90;99.90;14.20;100455.00;;;;5004505;27;95689;-65
2023/10/11 03:29:04;;;;;;;5.22;2.45;;;14.10;99.90;14.30;100451.00;;;;5005054;27;94306;-66
2023/10/11 03:31:40;;;;;;;6.40;3.17;;;14.20;99.90;14.30;100451.00;;;;5009198;27;100056;-66
2023/10/11 03:34:14;;;;;;;2.90;2.13;;;14.30;99.90;14.30;100452.00;;;;5005322;27;92948;-66
2023/10/11 03:36:50;;;;;;;3.80;2.70;;;14.30;99.90;14.30;100446.00;;;;5007280;27;92972;-66
2023/10/11 03:39:27;;;;;;;4.97;2.00;;;14.30;99.90;14.40;100442.00;;;;5006795;27;92922;-66
2023/10/11 03:42:06;;;;;;;4.00;2.45;;;14.30;99.90;14.40;100437.00;;;;5008759;27;93029;-66
2023/10/11 03:44:36;;;;;;;2.90;2.13;;;14.30;99.90;14.30;100438.00;;;;5008711;27;93749;-66
2023/10/11 03:47:07;;;;;;;5.32;2.15;;;14.30;99.90;14.40;100444.00;;;;4991420;27;93861;-66
2023/10/11 03:52:16;;;;;;;3.97;2.50;;;14.30;99.90;14.30;100436.00;;;;5005545;27;97666;-66
2023/10/11 03:54:42;;;;;;;7.93;2.47;;;14.30;99.90;14.30;100432.00;;;;5005603;27;92989;-66
2023/10/11 03:57:08;;;;;;;2.83;1.98;;;14.30;99.90;14.30;100433.00;;;;5002515;27;93131;-66
2023/10/11 03:59:38;;;;;;;1.52;1.42;;;14.30;99.90;14.30;100426.00;;;;5005501;27;122471;-66
2023/10/11 04:02:10;;;;;;;3.60;2.67;;;14.30;99.90;14.30;100420.00;;;;5006816;27;93652;-66
2023/10/11 04:04:40;;;;;;;3.58;1.80;;;14.30;99.90;14.30;100415.00;;;;5004943;27;92221;-66
2023/10/11 04:07:06;;;;;;;5.07;1.90;;;14.20;99.90;14.20;100422.00;;;;4988179;27;93245;-66
2023/10/11 04:09:33;;;;;;;5.22;2.67;;;14.20;99.90;14.20;100425.00;;;;5002537;27;107388;-66
2023/10/11 04:12:00;;;;;;;2.58;2.15;;;14.10;99.90;14.10;100417.00;;;;5003576;27;94181;-66
2023/10/11 04:14:39;;;;;;;3.58;2.17;;;14.10;99.90;14.00;100417.00;;;;5006014;27;93261;-66
2023/10/11 04:17:26;;;;;;;5.50;2.03;;;14.00;99.90;13.80;100423.00;;;;4988240;27;93592;-67
2023/10/11 04:22:49;;;;;;;5.15;2.75;;;13.80;99.90;13.60;100413.00;;;;5008467;27;92982;-66
2023/10/11 04:25:18;;;;;;;4.45;2.25;;;13.70;99.90;13.50;100419.00;;;;5004106;27;92928;-66
2023/10/11 04:30:41;;;;;;;3.05;2.28;;;13.50;99.90;13.30;100418.00;;;;5002726;27;116496;-66
2023/10/11 04:33:11;;;;;;;2.58;1.67;;;13.40;99.90;13.20;100432.00;;;;4984878;27;93878;-66
2023/10/11 04:35:37;;;;;;;2.50;2.27;;;13.30;99.90;13.10;100424.00;;;;5001626;27;93929;-66
2023/10/11 04:38:04;;;;;;;3.13;2.47;;;13.20;99.90;13.00;100413.00;;;;4983659;27;93978;-67
2023/10/11 04:43:08;;;;;;;6.93;2.27;;;13.00;99.90;12.90;100416.00;;;;5002274;27;92834;-66
2023/10/11 04:45:45;;;;;;;4.53;2.50;;;13.00;99.90;13.00;100415.00;;;;5004042;27;94117;-66
2023/10/11 04:48:15;;;;;;;5.07;2.90;;;13.00;99.90;13.00;100420.00;;;;5009595;27;92906;-66
2023/10/11 04:50:50;;;;;;;4.00;2.55;;;13.00;99.90;13.10;100422.00;;;;5007119;27;94230;-66
2023/10/11 04:53:17;;;;;;;3.90;1.97;;;13.00;99.90;13.10;100422.00;;;;4986145;27;95372;-66
2023/10/11 04:55:59;;;;;;;5.07;1.80;;;13.10;99.90;13.20;100423.00;;;;5007042;27;92016;-66
2023/10/11 04:58:42;;;;;;;4.55;2.75;;;13.20;99.90;13.30;100426.00;;;;5005250;27;94385;-66
2023/10/11 05:01:12;;;;;;;4.13;1.97;;;13.20;99.90;13.30;100417.00;;;;4990913;27;94661;-66
2023/10/11 05:03:42;;;;;;;5.30;2.57;;;13.30;99.90;13.40;100430.00;;;;5007045;27;94144;-65
2023/10/11 05:06:15;;;;;;;3.07;2.43;;;13.30;99.90;13.40;100413.00;;;;5005052;27;93084;-65
2023/10/11 05:08:51;;;;;;;2.70;2.30;;;13.40;99.90;13.40;100415.00;;;;5007615;27;93711;-65
2023/10/11 05:11:36;;;;;;;2.47;1.88;;;13.40;99.90;13.50;100409.00;;;;5009840;27;93215;-65
2023/10/11 05:16:49;;;;;;;9.13;3.03;;;13.50;99.90;13.70;100410.00;;;;5007818;27;93020;-65
2023/10/11 05:19:20;;;;;;;2.57;1.90;;;13.70;99.90;13.80;100417.00;;;;5003611;27;93034;-66
2023/10/11 05:21:55;;;;;;;2.92;1.88;;;13.80;99.90;13.90;100422.00;;;;4989462;27;93067;-65
2023/10/11 05:24:44;;;;;;;4.70;2.33;;;13.80;99.90;14.10;100406.00;;;;5004715;27;93327;-66
2023/10/11 05:32:49;;;;;;;3.05;2.10;;;14.30;99.90;14.60;100410.00;;;;4983493;28;94056;-65
2023/10/11 05:51:39;;;;;;;5.60;2.30;;;15.00;99.90;15.20;100419.00;;;;4971171;27;99385;-67
2023/10/11 05:54:09;;;;;;;7.18;2.63;;;15.10;99.90;15.20;100416.00;;;;4987062;27;93410;-68
2023/10/11 05:56:38;;;;;;;3.17;1.98;;;15.10;99.90;15.30;100415.00;;;;4962849;28;94260;-66
2023/10/11 05:59:05;;;;;;;3.65;1.40;;;15.20;99.90;15.30;100415.00;;;;4984075;27;93138;-66
2023/10/11 06:01:31;;;;;;;3.30;1.77;;;15.30;99.90;15.40;100418.00;;;;4983710;28;92996;-68
2023/10/11 06:04:03;;;;;;;5.05;1.98;;;15.30;99.90;15.40;100408.00;;;;4985153;28;121837;-67
2023/10/11 06:06:56;;;;;;;3.55;2.00;;;15.30;99.90;15.50;100413.00;;;;4982270;28;94473;-67
2023/10/11 06:09:26;;;;;;;2.38;1.98;;;15.40;99.90;15.50;100407.00;;;;4983049;28;95080;-67
2023/10/11 06:11:51;;;;;;;4.45;2.75;;;15.40;99.90;15.60;100409.00;;;;4984615;28;92807;-68
2023/10/11 06:14:18;;;;;;;4.13;1.50;;;16.20;99.90;15.70;100408.00;;;;4983828;27;112253;-68
2023/10/11 06:17:05;;;;;;;8.70;2.28;;;15.60;99.90;15.80;100410.00;;;;4987332;28;92994;-67
2023/10/11 06:19:31;;;;;;;4.28;2.28;;;15.70;99.90;15.90;100411.00;;;;4965308;28;93067;-67
2023/10/11 06:21:57;;;;;;;2.13;1.80;;;15.80;99.90;16.00;100411.00;;;;4988147;27;93777;-66
2023/10/11 06:24:36;;;;;;;6.25;2.65;;;15.90;99.90;16.10;100406.00;;;;4983968;27;93122;-67
2023/10/11 06:29:37;;;;;;;2.13;1.92;;;16.00;99.90;16.20;100412.00;;;;4982948;27;93087;-68
2023/10/11 06:32:11;;;;;;;3.65;2.42;;;16.10;99.90;16.30;100420.00;;;;4983817;27;92893;-68
2023/10/11 06:34:39;;;;;;;1.77;1.58;;;16.20;99.90;16.40;100419.00;;;;4985955;27;94552;-67
2023/10/11 06:37:07;;;;;;;4.43;1.67;;;16.20;99.90;16.40;100421.00;;;;4970824;28;122366;-67
2023/10/11 06:44:57;;;;;;;3.42;1.73;;;16.40;99.90;16.50;100407.00;;;;4978615;28;93262;-66
2023/10/11 06:47:25;;;;;;;2.97;2.30;;;16.40;99.90;16.60;100428.00;;;;4982352;27;94064;-66
2023/10/11 06:49:56;;;;;;;2.20;1.73;;;16.50;99.90;16.70;100422.00;;;;4980049;28;92845;-68
2023/10/11 06:52:36;;;;;;;4.00;2.67;;;16.50;99.90;16.70;100425.00;;;;4982148;27;92899;-68
2023/10/11 06:55:13;;;;;;;5.18;1.73;;;16.60;99.90;16.80;100423.00;;;;4981634;27;92857;-68
2023/10/11 06:57:41;;;;;;;2.42;2.05;;;16.60;99.90;16.80;100416.00;;;;4984319;27;92837;-67
2023/10/11 07:00:21;;;;;;;7.25;2.03;;;16.70;99.90;16.80;100423.00;;;;4982143;27;92968;-66
2023/10/11 07:05:45;;;;;;;2.05;1.75;;;16.80;99.90;17.00;100423.00;;;;4989545;27;92728;-67
2023/10/11 07:08:17;;;;;;;3.00;1.55;;;16.90;99.90;17.10;100419.00;;;;4984123;27;93237;-66
2023/10/11 07:13:43;;;;;;;3.78;2.10;;;17.00;99.90;17.20;100422.00;;;;4983916;27;94252;-67
2023/10/11 07:16:12;;;;;;;2.42;1.92;;;17.10;99.90;17.20;100436.00;;;;4981382;27;93326;-66
2023/10/11 07:18:43;;;;;;;5.50;1.30;;;17.10;99.90;17.20;100430.00;;;;4984169;27;122026;-66
2023/10/11 07:21:09;;;;;;;4.13;1.42;;;17.10;99.90;17.20;100426.00;;;;4985256;27;93083;-67
2023/10/11 07:28:52;;;;;;;2.78;1.52;;;17.20;99.90;17.20;100424.00;;;;5005144;27;92939;-68
2023/10/11 07:31:31;;;;;;;2.90;1.83;;;17.10;99.90;17.20;100416.00;;;;4997074;27;92353;-67
2023/10/11 07:33:58;;;;;;;2.63;1.75;;;17.20;99.90;17.20;100413.00;;;;5002170;27;93078;-68
2023/10/11 07:36:25;;;;;;;2.38;1.20;;;17.10;99.90;17.20;100418.00;;;;5000196;27;93892;-67
2023/10/11 07:38:54;;;;;;;3.28;1.80;;;17.10;99.90;17.10;100415.00;;;;4983894;27;93949;-66
2023/10/11 07:41:27;;;;;;;4.13;1.83;;;17.10;99.90;17.20;100413.00;;;;5013142;27;93184;-67
2023/10/11 07:43:55;;;;;;;4.03;1.60;;;17.10;99.90;17.20;100415.00;;;;4984558;27;93092;-67
2023/10/11 07:46:21;;;;;;;4.35;2.00;;;17.20;99.90;17.30;100421.00;;;;5009388;27;93042;-67
2023/10/11 07:48:47;;;;;;;2.65;1.52;;;17.20;99.90;17.50;100414.00;;;;5008296;27;112370;-66
2023/10/11 07:51:14;;;;;;;2.75;1.73;;;17.30;99.90;17.70;100403.00;;;;5009256;27;93189;-67
2023/10/11 07:53:41;;;;;;;8.60;2.08;;;17.60;99.90;17.90;100411.00;;;;5008588;27;94280;-66
2023/10/11 07:56:08;;;;;;;2.70;1.52;;;17.80;99.90;18.10;100408.00;;;;5008624;27;93051;-67
2023/10/11 07:58:45;;;;;;;3.33;1.75;;;17.90;99.50;18.20;100398.00;;;;5004242;27;93049;-67
2023/10/11 08:03:57;;;;;;;1.45;1.33;;;18.30;99.20;18.80;100406.00;;;;5006349;27;93750;-67
2023/10/11 08:06:27;;;;;;;4.03;1.88;;;18.60;98.70;19.00;100397.00;;;;5006240;27;93268;-67
2023/10/11 08:08:59;;;;;;;3.97;2.67;;;18.80;98.10;19.30;100410.00;;;;5007796;27;93143;-66
2023/10/11 08:11:45;;;;;;;2.55;1.70;;;19.10;97.70;19.50;100417.00;;;;5001902;27;95756;-67
2023/10/11 08:14:15;;;;;;;2.33;1.60;;;19.30;97.00;19.80;100417.00;;;;5001741;27;93032;-66
2023/10/11 08:16:47;;;;;;;3.35;1.48;;;19.50;95.90;20.00;100418.00;;;;5006580;27;93210;-66
2023/10/11 08:19:13;;;;;;;2.55;1.52;;;19.80;95.70;20.20;100418.00;;;;5004016;27;93566;-67
2023/10/11 08:21:39;;;;;;;1.33;1.10;;;20.00;95.20;20.50;100415.00;;;;5003002;27;92250;-66
2023/10/11 08:24:15;;;;;;;4.00;1.42;;;20.20;94.60;20.70;100406.00;;;;5001986;27;94701;-68
2023/10/11 08:26:45;;;;;;;2.58;1.73;;;20.50;93.90;21.00;100422.00;;;;4999456;27;92985;-67
2023/10/11 08:29:27;;;;;;;7.63;1.52;;;20.70;93.40;21.30;100402.00;;;;5000189;27;94035;-67
2023/10/11 08:32:00;;;;;;;1.92;1.55;;;21.10;92.90;21.60;100407.00;;;;5006168;27;92988;-66
2023/10/11 08:34:28;;;;;;;3.60;1.50;;;21.40;92.60;21.90;100407.00;;;;5004976;27;92908;-67
2023/10/11 08:36:55;;;;;;;1.90;1.63;;;21.60;91.30;22.20;100397.00;;;;4998421;27;123477;-66
2023/10/11 08:42:17;;;;;;;4.80;2.10;;;22.30;88.90;22.90;100398.00;;;;4994085;27;92873;-66
2023/10/11 08:44:46;;;;;;;3.38;1.73;;;22.60;87.90;23.10;100396.00;;;;5000829;27;92708;-66
2023/10/11 08:47:14;;;;;;;1.80;1.20;;;22.90;85.70;23.30;100405.00;;;;4999813;27;93471;-67
2023/10/11 08:49:59;;;;;;;7.85;2.55;;;23.10;85.60;23.60;100409.00;;;;4981980;27;92807;-67
2023/10/11 08:52:29;;;;;;;1.60;1.50;;;23.30;84.60;23.80;100406.00;;;;4978806;27;94013;-65
2023/10/11 08:54:55;;;;;;;3.28;1.70;;;23.50;83.00;23.90;100402.00;;;;5004470;27;94965;-66
2023/10/11 08:57:25;;;;;;;2.58;1.48;;;23.70;80.90;24.10;100408.00;;;;5004573;27;122367;-67
2023/10/11 08:59:58;;;;;;;3.15;1.27;;;23.90;79.50;24.20;100405.00;;;;5002992;27;93279;-66
2023/10/11 09:02:27;;;;;;;2.97;2.13;;;24.10;78.00;24.50;100411.00;;;;5003633;27;92802;-68
2023/10/11 09:05:07;;;;;;;2.13;1.70;;;24.20;78.30;24.70;100410.00;;;;5002117;27;99593;-67
2023/10/11 09:07:39;;;;;;;1.30;1.20;;;24.40;75.30;24.90;100398.00;;;;4992858;27;93002;-66
2023/10/11 09:10:26;;;;;;;3.70;1.92;;;24.60;73.70;25.00;100403.00;;;;4987569;27;94193;-68
2023/10/11 09:12:57;;;;;;;2.58;1.33;;;24.70;70.00;25.00;100411.00;;;;5004885;27;93436;-68
2023/10/11 09:15:36;;;;;;;5.97;1.60;;;24.80;69.30;25.00;100406.00;;;;4991287;27;93294;-68
2023/10/11 09:18:17;;;;;;;3.58;1.95;;;24.80;70.40;24.90;100406.00;;;;5005390;27;93143;-68
2023/10/11 09:21:08;;;;;;;3.22;1.55;;;24.80;69.00;24.60;100410.00;;;;4999544;27;94031;-68
2023/10/11 09:23:36;;;;;;;3.30;1.88;;;24.60;69.20;24.40;100413.00;;;;4998710;27;92884;-69
2023/10/11 09:26:02;;;;;;;3.78;1.35;;;24.30;69.80;24.30;100418.00;;;;4998798;27;93218;-68
2023/10/11 09:28:33;;;;;;;2.47;1.40;;;24.20;70.60;24.30;100408.00;;;;4987687;27;92924;-68
2023/10/11 09:31:13;;;;;;;2.58;1.95;;;24.20;71.80;24.50;100428.00;;;;5003757;27;93586;-67
2023/10/11 09:33:41;;;;;;;1.77;1.10;;;24.30;72.70;24.70;100431.00;;;;5004241;27;94720;-67
2023/10/11 09:36:08;;;;;;;3.92;1.88;;;24.40;72.00;24.80;100425.00;;;;5007650;27;93300;-68
2023/10/11 09:38:43;;;;;;;5.45;2.05;;;24.50;71.00;24.90;100428.00;;;;5009725;27;93323;-68
2023/10/11 09:41:10;;;;;;;8.82;1.63;;;24.70;70.30;25.00;100419.00;;;;5008944;27;94914;-67
2023/10/11 09:43:42;;;;;;;4.05;2.25;;;24.80;68.70;25.10;100425.00;;;;5008305;27;93029;-67
2023/10/11 09:46:11;;;;;;;2.80;1.27;;;24.80;67.90;25.30;100419.00;;;;5006898;27;95224;-68
2023/10/11 09:48:41;;;;;;;2.08;1.52;;;25.00;68.10;25.50;100426.00;;;;5003503;27;94418;-68
2023/10/11 09:51:14;;;;;;;5.13;1.73;;;25.20;67.10;25.60;100416.00;;;;5005256;27;93650;-68
2023/10/11 09:53:50;;;;;;;4.57;1.25;;;25.40;65.80;25.80;100432.00;;;;4996763;27;93295;-68
2023/10/11 09:56:35;;;;;;;6.32;2.55;;;25.50;65.90;25.80;100420.00;;;;5006842;27;94499;-67
2023/10/11 09:59:46;;;;;;;2.97;1.67;;;25.60;64.00;25.90;100428.00;;;;4985084;27;93555;-69
2023/10/11 10:02:36;;;;;;;3.42;1.48;;;25.60;62.10;26.00;100430.00;;;;4988217;27;93682;-71
2023/10/11 10:05:05;;;;;;;2.28;1.45;;;25.80;62.10;26.20;100430.00;;;;4992828;27;92257;-69
2023/10/11 10:07:44;;;;;;;1.98;0.93;;;25.90;63.70;26.30;100428.00;;;;5005305;27;92795;-71
2023/10/11 10:10:12;;;;;;;2.70;1.42;;;26.00;62.70;26.40;100430.00;;;;4983230;27;93245;-72
2023/10/11 10:13:06;;;;;;;3.80;1.65;;;26.20;61.60;26.50;100421.00;;;;5006489;27;93908;-70
2023/10/11 10:15:47;;;;;;;1.92;1.67;;;26.30;60.80;26.50;100427.00;;;;5002278;27;94221;-72
2023/10/11 10:18:19;;;;;;;1.42;1.00;;;26.30;59.70;26.60;100431.00;;;;4980916;28;93279;-70
2023/10/11 10:20:47;;;;;;;2.47;1.83;;;26.30;59.40;26.50;100404.00;;;;4967961;27;94842;-70
2023/10/11 10:23:15;;;;;;;2.67;2.15;;;26.30;58.20;26.50;100421.00;;;;4981930;27;93159;-71
2023/10/11 10:25:48;;;;;;;2.08;1.67;;;26.30;58.60;26.50;100413.00;;;;5004604;27;93060;-71
2023/10/11 10:28:34;;;;;;;4.43;1.27;;;26.30;58.20;26.60;100411.00;;;;5005480;27;97455;-72
2023/10/11 10:31:09;;;;;;;1.63;1.10;;;26.40;57.90;26.70;100410.00;;;;4981437;27;94942;-70
2023/10/11 10:33:36;;;;;;;7.43;1.67;;;26.40;57.00;26.70;100418.00;;;;5006774;27;93092;-71
2023/10/11 10:36:20;;;;;;;2.30;1.40;;;26.70;57.40;26.90;100402.00;;;;4970401;27;92842;-72
2023/10/11 10:38:58;;;;;;;2.72;1.40;;;26.60;57.60;27.10;100416.00;;;;5004924;27;94163;-72
2023/10/11 10:41:25;;;;;;;1.55;0.98;;;26.80;57.80;27.20;100399.00;;;;4988930;27;95290;-72
2023/10/11 10:44:12;;;;;;;5.05;1.70;;;26.90;55.70;27.20;100407.00;;;;5004107;27;92970;-73
2023/10/11 10:46:54;;;;;;;4.32;1.52;;;27.00;56.10;27.40;100385.00;;;;4983868;27;93300;-73
2023/10/11 10:49:41;;;;;;;2.90;1.50;;;27.00;55.60;27.50;100385.00;;;;4989358;27;108550;-71
2023/10/11 10:52:22;;;;;;;2.72;1.50;;;27.20;55.80;27.50;100383.00;;;;5005158;27;93802;-72
2023/10/11 10:55:07;;;;;;;3.55;1.77;;;27.30;55.30;27.60;100371.00;;;;5000764;27;92997;-72
2023/10/11 10:57:37;;;;;;;3.75;1.77;;;27.30;54.00;27.60;100373.00;;;;4986213;27;92402;-72
2023/10/11 11:00:21;;;;;;;2.47;1.02;;;27.30;54.00;27.70;100383.00;;;;4972686;27;93078;-72
2023/10/11 11:02:50;;;;;;;4.90;2.05;;;27.30;54.60;27.80;100382.00;;;;4993179;27;94605;-74
2023/10/11 11:05:16;;;;;;;2.33;1.60;;;27.40;54.10;27.80;100384.00;;;;5002745;27;94434;-72
2023/10/11 11:07:47;;;;;;;4.78;1.38;;;27.50;53.30;27.80;100387.00;;;;5004826;27;93126;-72
2023/10/11 11:10:21;;;;;;;4.07;1.52;;;27.50;53.10;27.90;100386.00;;;;5006816;27;93088;-73
2023/10/11 11:12:48;;;;;;;1.85;1.20;;;27.60;53.40;28.10;100381.00;;;;4979186;27;93062;-73
2023/10/11 11:15:20;;;;;;;2.78;1.48;;;27.80;53.30;28.20;100389.00;;;;4992373;27;92893;-73
2023/10/11 11:17:51;;;;;;;3.80;1.30;;;27.90;52.70;28.30;100386.00;;;;4996432;27;93831;-72
2023/10/11 11:20:31;;;;;;;2.67;1.67;;;28.00;52.70;28.40;100382.00;;;;4988911;27;93290;-73
2023/10/11 11:22:57;;;;;;;1.83;1.05;;;28.00;52.60;28.30;100378.00;;;;5004333;27;92534;-75
2023/10/11 11:25:27;;;;;;;1.52;0.95;;;28.00;51.60;28.30;100366.00;;;;5001646;27;121288;-74
2023/10/11 11:28:15;;;;;;;3.38;1.58;;;28.00;51.50;28.30;100376.00;;;;5004258;27;93110;-73
2023/10/11 11:30:50;;;;;;;2.28;1.42;;;28.00;51.40;28.30;100377.00;;;;4970917;27;94063;-74
2023/10/11 11:33:35;;;;;;;4.93;2.50;;;28.00;50.90;28.30;100386.00;;;;5005548;27;94609;-73
2023/10/11 11:36:10;;;;;;;4.53;1.83;;;28.00;50.60;28.30;100387.00;;;;5000797;27;94368;-72
2023/10/11 11:38:46;;;;;;;2.78;1.58;;;28.00;51.00;28.40;100371.00;;;;5001946;27;93769;-73
2023/10/11 11:41:16;;;;;;;3.50;1.83;;;28.10;49.80;28.40;100371.00;;;;5000611;27;102992;-73
2023/10/11 11:43:46;;;;;;;5.15;1.35;;;28.10;49.20;28.50;100381.00;;;;5005590;27;93013;-72
2023/10/11 11:46:15;;;;;;;3.00;1.55;;;28.10;49.80;28.50;100377.00;;;;4998929;27;114331;-73
2023/10/11 11:48:42;;;;;;;3.92;1.83;;;28.20;49.90;28.50;100371.00;;;;5001109;27;92220;-74
2023/10/11 11:51:13;;;;;;;1.55;1.00;;;28.20;50.10;28.60;100369.00;;;;5001594;27;92975;-73
2023/10/11 11:53:45;;;;;;;3.85;1.80;;;28.20;50.00;28.60;100372.00;;;;4999524;27;94555;-76
2023/10/11 11:56:12;;;;;;;5.32;2.00;;;28.20;49.80;28.70;100363.00;;;;4999826;27;122887;-76
2023/10/11 11:58:45;;;;;;;4.80;1.50;;;28.30;50.20;28.80;100384.00;;;;4984344;27;93456;-73
2023/10/11 12:01:15;;;;;;;2.72;1.65;;;28.30;50.00;28.80;100365.00;;;;4985427;27;93098;-74
2023/10/11 12:03:42;;;;;;;1.33;1.23;;;28.50;48.70;28.60;100359.00;;;;5000099;27;93082;-74
2023/10/11 12:06:21;;;;;;;1.92;1.70;;;28.30;48.60;28.40;100355.00;;;;5000166;27;92890;-73
2023/10/11 12:09:02;;;;;;;3.28;2.55;;;28.10;49.00;28.10;100358.00;;;;5000783;27;92853;-75
2023/10/11 12:11:29;;;;;;;3.10;1.30;;;27.90;49.70;28.10;100355.00;;;;4993334;27;92772;-74